Latest Weather Observations for Deniliquin

IDN60801

Issued at 11:03 am EST Saturday 1 October 2016 (issued every 30 minutes, with the page automatically refreshed every 10 minutes)

About weather observations | Map of weather stations | Latest weather observations for NSW | Other Formats
Station Details ID: 074258 Name: DENILIQUIN AIRPORT AWS Lat: -35.56 Lon: 144.95 Height: 94.0 m
Data from the previous 72 hours. | See also: Recent months at Deniliquin
Date/Time
EST
Temp
°C
App
Temp
°C
Dew
Point
°C
Rel
Hum
%
Delta-T
°C
Wind Press
QNH
hPa
Press
MSL
hPa
Rain since
9am
mm
Dir  Spd
km/h
Gust
km/h
Spd
kts
Gust
kts
01/11:00am 14.3 9.1 8.9 70 2.8 WNW 26 37 14 20 1008.2 1008.1 0.0
01/10:30am 12.6 8.0 8.3 75 2.1 WNW 22 33 12 18 1008.4 1008.3 0.0
01/10:00am 11.9 6.9 8.0 77 1.9 WNW 24 35 13 19 1008.1 1008.0 0.0
01/09:30am 11.5 5.8 8.4 81 1.5 WNW 28 39 15 21 1008.0 1008.0 0.0
01/09:00am 11.3 6.5 8.7 84 1.3 WNW 24 37 13 20 1007.7 1007.7 4.6
01/08:30am 10.9 5.7 8.7 86 1.1 WNW 26 35 14 19 1007.5 1007.5 4.6
01/08:00am 10.6 5.9 9.2 91 0.7 WNW 24 37 13 20 1007.1 1007.1 4.6
01/07:30am 10.4 6.1 9.3 93 0.6 WNW 22 33 12 18 1006.6 1006.6 4.6
01/07:00am 10.3 6.5 9.7 96 0.3 WNW 20 26 11 14 1006.2 1006.2 4.6
01/06:30am 10.2 6.6 9.7 97 0.3 WNW 19 32 10 17 1005.6 1005.5 4.6
01/06:00am 10.3 5.7 9.5 95 0.4 WNW 24 32 13 17 1005.1 1005.0 4.6
01/05:30am 10.2 4.9 9.7 97 0.3 WNW 28 39 15 21 1004.7 1004.6 4.6
01/05:00am 10.2 5.4 10.2 100 0.0 WNW 26 43 14 23 1004.1 1004.1 4.6
01/04:30am 10.4 5.2 10.1 98 0.2 WNW 28 41 15 22 1003.5 1003.5 4.6
01/04:00am 10.4 - - - - WNW 24 37 13 20 1003.1 1003.1 4.6
01/03:30am 10.5 - - - - WNW 22 32 12 17 1002.7 1002.7 4.6
01/03:00am 10.6 - - - - WNW 20 28 11 15 1002.2 1002.2 4.6
01/02:30am 10.7 - - - - WNW 22 33 12 18 1002.2 1002.2 4.6
01/02:00am 10.7 - - - - WNW 22 32 12 17 1002.1 1002.1 4.6
01/01:30am 10.8 - - - - WNW 20 30 11 16 1002.0 1002.0 4.6
01/01:00am 10.8 - - - - WNW 24 41 13 22 1001.8 1001.8 4.6
01/12:30am 10.9 - - - - WNW 26 39 14 21 1001.5 1001.5 4.2
01/12:00am 11.0 - - - - WNW 24 37 13 20 1001.3 1001.3 4.0
 
Date/Time
EST
Temp
°C
App
Temp
°C
Dew
Point
°C
Rel
Hum
%
Delta-T
°C
Wind Press
QNH
hPa
Press
MSL
hPa
Rain since
9am
mm
Dir  Spd
km/h
Gust
km/h
Spd
kts
Gust
kts
30/11:30pm 11.2 - - - - WNW 28 37 15 20 1001.2 1001.2 3.8
30/11:00pm 11.3 - - - - W 28 37 15 20 1001.0 1001.0 3.8
30/10:30pm 11.4 - - - - WNW 19 28 10 15 1001.0 1001.0 3.6
30/10:00pm 10.8 - - - - WNW 11 19 6 10 1000.8 1000.8 3.6
30/09:30pm 10.1 - - - - WNW 11 15 6 8 1000.8 1000.8 3.6
30/09:00pm 10.1 - - - - W 13 17 7 9 1000.5 1000.5 3.6
30/08:30pm 10.2 - - - - W 13 17 7 9 1000.2 1000.2 3.6
30/08:00pm 10.7 - - - - W 15 22 8 12 999.6 999.6 3.6
30/07:30pm 11.0 - - - - W 17 20 9 11 999.1 999.1 3.6
30/07:00pm 11.0 - - - - W 13 19 7 10 998.6 998.6 3.6
30/06:30pm 10.7 - - - - NNW 11 13 6 7 998.1 998.1 3.4
30/06:00pm 10.7 - - - - N 15 20 8 11 997.4 997.4 3.2
30/05:30pm 10.4 - - - - N 13 17 7 9 997.2 997.2 3.2
30/05:00pm 9.8 6.9 9.7 99 0.1 N 15 17 8 9 997.1 997.0 3.0
30/04:30pm 10.3 7.8 9.8 97 0.3 NW 13 20 7 11 997.5 997.5 1.4
30/04:00pm 10.8 6.8 9.1 89 0.9 NW 20 28 11 15 997.4 997.4 1.0
30/03:30pm 11.9 6.2 8.2 78 1.8 WNW 28 37 15 20 997.2 997.2 1.0
30/03:00pm 11.9 6.7 8.7 81 1.6 WNW 26 37 14 20 997.1 997.0 1.0
30/02:31pm 10.9 5.2 9.8 93 0.6 W 30 48 16 26 997.2 997.2 1.0
30/02:30pm 10.8 4.7 9.6 92 0.6 W 32 48 17 26 997.2 997.2 1.0
30/02:15pm 12.6 5.8 7.7 72 2.4 WNW 33 59 18 32 997.0 996.9 0.0
30/02:00pm 14.4 7.4 6.0 57 4.1 WNW 32 46 17 25 996.4 996.3 0.0
30/01:30pm 15.1 8.5 5.9 54 4.4 W 30 41 16 22 996.3 996.2 0.0
30/01:00pm 14.3 7.0 7.1 62 3.6 W 35 46 19 25 996.3 996.2 0.0
30/12:50pm 14.0 7.6 6.8 62 3.5 W 30 48 16 26 996.3 996.2 0.0
30/12:30pm 13.8 6.9 7.3 65 3.2 W 33 48 18 26 996.0 995.9 0.0
30/12:10pm 13.8 7.9 7.6 66 3.1 W 28 46 15 25 995.8 995.7 0.0
30/12:00pm 13.7 7.5 7.7 67 3.0 WNW 30 41 16 22 995.6 995.5 0.0
30/11:30am 12.6 5.6 6.9 68 2.8 WNW 33 44 18 24 995.5 995.4 0.0
30/11:20am 13.2 6.9 7.2 67 2.9 WNW 30 54 16 29 995.4 995.3 0.0
30/11:00am 13.6 7.8 7.8 68 2.9 W 28 43 15 23 995.4 995.3 0.0
30/10:30am 12.5 6.2 7.4 71 2.5 W 30 44 16 24 994.9 994.8 0.0
30/10:00am 11.3 5.3 7.0 75 2.1 WNW 28 35 15 19 994.7 994.6 0.0
30/09:30am 10.8 4.8 7.1 78 1.8 WNW 28 41 15 22 994.4 994.3 0.0
30/09:00am 10.2 4.3 7.4 83 1.4 WNW 28 37 15 20 994.1 994.0 4.0
30/08:30am 9.7 4.6 7.5 86 1.1 WNW 24 32 13 17 993.7 993.6 4.0
30/08:00am 9.0 3.9 7.8 92 0.6 WNW 24 33 13 18 993.3 993.3 4.0
30/07:30am 8.6 4.3 8.0 96 0.3 WNW 20 28 11 15 992.8 992.8 4.0
30/07:00am 8.6 4.4 8.2 97 0.2 WNW 20 33 11 18 992.3 992.3 4.0
30/06:30am 8.3 5.4 8.3 100 0.0 WNW 13 17 7 9 991.7 991.7 4.0
30/06:00am 8.5 5.3 8.5 100 0.0 WNW 15 20 8 11 991.1 991.1 4.0
30/05:30am 8.7 5.6 8.7 100 0.0 NW 15 20 8 11 990.6 990.6 4.0
30/05:00am 9.0 5.6 9.0 100 0.0 WNW 17 24 9 13 990.4 990.4 4.0
30/04:30am 8.9 - - - - NNW 13 17 7 9 990.0 990.0 4.0
30/04:00am 8.8 5.7 8.8 100 0.0 NNW 15 19 8 10 989.8 989.8 4.0
30/03:30am 8.9 5.4 8.6 98 0.1 NNW 17 24 9 13 989.8 989.8 3.8
30/03:00am 9.1 5.2 8.6 97 0.2 NNW 19 24 10 13 989.7 989.7 3.8
30/02:30am 9.1 5.7 9.0 99 0.0 NNW 17 20 9 11 989.7 989.7 3.8
30/02:00am 9.1 5.3 9.0 99 0.0 NNW 19 24 10 13 989.9 989.9 3.8
30/01:30am 9.0 5.6 9.0 100 0.0 NNW 17 22 9 12 990.1 990.1 3.8
30/01:00am 9.4 6.4 9.1 98 0.2 N 15 22 8 12 990.1 990.1 3.8
30/12:30am 9.5 6.1 9.0 97 0.2 N 17 28 9 15 990.0 990.0 3.8
30/12:00am 9.8 5.2 9.5 98 0.2 N 24 32 13 17 990.1 990.1 3.8
 
Date/Time
EST
Temp
°C
App
Temp
°C
Dew
Point
°C
Rel
Hum
%
Delta-T
°C
Wind Press
QNH
hPa
Press
MSL
hPa
Rain since
9am
mm
Dir  Spd
km/h
Gust
km/h
Spd
kts
Gust
kts
29/11:30pm 9.8 5.6 9.8 100 0.0 N 22 35 12 19 990.3 990.3 3.8
29/11:00pm 9.6 - - - - N 24 33 13 18 990.5 990.5 3.8
29/10:30pm 9.6 4.6 9.6 100 0.0 N 26 35 14 19 990.8 990.8 2.4
29/10:00pm 9.6 4.1 9.1 97 0.3 N 28 39 15 21 990.8 990.8 1.6
29/09:30pm 9.6 4.1 9.0 96 0.3 N 28 39 15 21 991.0 991.0 1.6
29/09:00pm 9.7 3.3 8.5 92 0.6 N 32 46 17 25 991.0 991.0 1.6
29/08:47pm 10.0 3.3 8.1 88 0.9 N 33 52 18 28 990.9 990.9 1.6
29/08:30pm 9.9 3.4 8.0 88 0.9 N 32 44 17 24 991.0 991.0 1.6
29/08:20pm 9.9 3.3 7.8 87 1.0 N 32 54 17 29 991.0 991.0 1.6
29/08:00pm 9.6 3.4 7.9 89 0.8 N 30 41 16 22 990.9 990.9 1.6
29/07:30pm 9.6 3.4 7.9 89 0.8 N 30 46 16 25 990.9 990.9 1.4
29/07:00pm 9.4 3.1 7.3 87 1.0 N 30 41 16 22 990.7 990.7 1.4
29/06:40pm 9.5 2.7 6.9 84 1.2 N 32 50 17 27 990.6 990.6 1.4
29/06:30pm 9.5 2.7 6.9 84 1.2 N 32 48 17 26 990.6 990.6 1.4
29/06:13pm 9.8 2.3 6.5 80 1.5 NNW 35 54 19 29 990.6 990.6 1.0
29/06:00pm 11.0 3.4 5.7 70 2.5 NNW 35 52 19 28 990.5 990.5 1.0
29/05:30pm 11.7 4.4 5.3 65 3.0 N 33 56 18 30 990.2 990.2 1.0
29/05:28pm 11.8 4.7 5.7 66 2.9 N 32 56 17 30 990.2 990.2 1.0
29/05:00pm 10.9 3.9 6.1 72 2.3 N 32 43 17 23 990.3 990.3 1.0
29/04:36pm 11.8 4.6 5.9 67 2.8 N 33 54 18 29 990.1 990.1 0.8
29/04:30pm 11.7 4.8 6.4 70 2.5 N 32 44 17 24 990.2 990.2 0.8
29/04:00pm 10.1 2.6 6.3 77 1.8 NNW 35 54 19 29 990.6 990.6 0.8
29/03:34pm 12.3 4.0 6.1 66 2.9 NNW 39 57 21 31 990.5 990.5 0.8
29/03:30pm 12.5 4.5 7.6 72 2.4 NNW 39 52 21 28 990.5 990.5 0.8
29/03:02pm 11.3 3.4 6.0 70 2.5 NNW 37 61 20 33 990.7 990.7 0.2
29/03:00pm 12.9 5.4 4.3 56 4.0 NNW 33 50 18 27 990.5 990.5 0.2
29/02:30pm 13.1 5.9 4.8 57 3.8 NNW 32 48 17 26 990.5 990.5 0.2
29/02:05pm 13.0 6.7 5.7 61 3.4 NNW 28 52 15 28 990.9 990.9 0.2
29/02:00pm 12.5 5.8 5.4 62 3.4 NNW 30 43 16 23 990.9 990.9 0.2
29/01:32pm 13.4 5.5 4.3 54 4.2 NNW 35 54 19 29 991.1 991.1 0.2
29/01:30pm 13.4 5.1 4.0 53 4.3 NNW 37 54 20 29 991.0 991.0 0.2
29/01:00pm 13.2 5.2 3.8 53 4.3 NNW 35 54 19 29 991.6 991.6 0.2
29/12:54pm 12.9 4.8 3.3 52 4.3 NNW 35 54 19 29 991.7 991.7 0.2
29/12:30pm 13.3 5.2 3.4 51 4.5 NNW 35 52 19 28 992.0 992.0 0.2
29/12:22pm 13.6 6.9 3.7 51 4.5 NNW 28 46 15 25 992.1 992.1 0.2
29/12:00pm 13.1 6.2 4.5 56 4.0 NNW 30 43 16 23 992.3 992.3 0.2
29/11:30am 13.9 6.0 4.5 53 4.4 NNW 35 50 19 27 992.7 992.7 0.0
29/11:09am 13.6 6.3 4.7 55 4.1 NNW 32 50 17 27 992.7 992.7 0.0
29/11:00am 13.7 6.3 4.8 55 4.2 NNW 33 48 18 26 992.8 992.8 0.0
29/10:36am 12.2 5.2 3.9 57 3.7 NW 30 50 16 27 993.0 993.0 0.0
29/10:30am 12.9 6.1 5.1 59 3.6 NW 30 43 16 23 993.0 993.0 0.0
29/10:00am 13.5 7.4 6.4 62 3.4 NNW 28 41 15 22 993.1 993.1 0.0
29/09:30am 12.4 6.4 5.3 62 3.3 NNW 26 37 14 20 993.2 993.2 0.0
29/09:00am 11.8 6.3 5.7 66 2.9 NW 24 35 13 19 993.1 993.1 7.2
29/08:30am 11.2 5.9 6.7 74 2.1 NW 24 32 13 17 993.3 993.3 7.2
29/08:00am 10.2 6.6 8.5 89 0.8 WNW 17 24 9 13 993.1 993.1 7.2
29/07:30am 9.7 5.8 8.6 93 0.5 WNW 19 28 10 15 992.9 992.9 7.0
29/07:00am 10.3 6.4 9.5 95 0.4 NW 20 30 11 16 992.6 992.6 6.8
29/06:30am 10.6 7.5 10.3 98 0.2 NNW 17 24 9 13 992.1 992.1 6.6
29/06:00am 10.6 8.7 10.4 99 0.1 NNW 11 15 6 8 991.7 991.7 6.4
29/05:30am 10.7 8.7 10.1 96 0.3 N 11 15 6 8 991.5 991.5 6.4
29/05:00am 11.0 7.7 9.4 90 0.8 NW 17 24 9 13 992.2 992.2 6.4
29/04:30am 11.9 8.3 11.7 99 0.1 NNW 22 30 12 16 992.0 992.0 6.4
29/04:00am 12.5 8.7 12.3 99 0.1 NNW 24 33 13 18 992.1 992.1 5.8
29/03:30am 13.2 10.8 12.7 97 0.3 NNE 17 22 9 12 991.4 991.4 5.2
29/03:00am 13.2 8.8 12.9 98 0.2 N 28 41 15 22 991.9 991.9 5.2
29/02:30am 13.1 7.2 12.3 95 0.4 N 35 57 19 31 992.1 992.1 5.2
29/02:00am 13.1 7.1 12.0 93 0.6 NNE 35 54 19 29 992.3 992.3 5.2
29/01:33am 12.7 7.1 12.2 97 0.3 NNE 33 52 18 28 993.0 993.0 4.8
29/01:30am 12.6 7.2 12.3 98 0.2 NNE 32 46 17 25 993.0 993.0 4.6
29/01:18am 12.6 7.2 12.1 97 0.3 NNE 32 50 17 27 993.5 993.4 4.4
29/01:00am 12.4 7.2 11.5 94 0.5 NNE 30 41 16 22 994.0 993.9 3.8
29/12:30am 12.5 7.9 10.9 90 0.8 NNE 26 35 14 19 995.3 995.2 1.8
29/12:00am 14.1 8.2 9.1 72 2.6 NNE 30 44 16 24 995.5 995.4 0.0
 
Date/Time
EST
Temp
°C
App
Temp
°C
Dew
Point
°C
Rel
Hum
%
Delta-T
°C
Wind Press
QNH
hPa
Press
MSL
hPa
Rain since
9am
mm
Dir  Spd
km/h
Gust
km/h
Spd
kts
Gust
kts
28/11:55pm 14.1 7.9 9.3 73 2.5 NNE 32 50 17 27 995.5 995.4 0.0
28/11:30pm 14.8 7.4 8.5 66 3.2 NE 37 50 20 27 995.0 994.9 0.0
28/11:00pm 14.9 8.2 8.2 64 3.4 NE 33 54 18 29 995.5 995.4 0.0
28/10:30pm 14.8 7.3 8.1 64 3.4 NE 37 57 20 31 996.1 996.0 0.0
28/10:04pm 15.1 7.1 7.6 61 3.7 NE 39 59 21 32 996.5 996.4 0.0
28/10:00pm 14.9 7.3 7.5 61 3.7 NE 37 48 20 26 996.5 996.4 0.0
28/09:44pm 14.9 7.0 7.7 62 3.6 NE 39 57 21 31 996.9 996.8 0.0
28/09:30pm 14.8 7.2 7.6 62 3.6 ENE 37 54 20 29 997.2 997.2 0.0
28/09:00pm 14.3 7.5 7.8 65 3.3 ENE 33 43 18 23 998.6 998.6 0.0
28/08:30pm 14.4 8.6 7.9 65 3.2 ENE 28 39 15 21 999.6 999.6 0.0
28/08:00pm 14.5 8.7 7.8 64 3.4 NE 28 41 15 22 1000.3 1000.3 0.0
28/07:30pm 14.6 9.5 7.6 63 3.5 NE 24 33 13 18 1001.0 1001.0 0.0
28/07:00pm 14.6 10.2 7.6 63 3.5 NE 20 28 11 15 1001.4 1001.4 0.0
28/06:30pm 15.0 10.1 7.1 59 3.9 NE 22 28 12 15 1001.5 1001.5 0.0
28/06:00pm 15.4 9.8 7.2 58 4.1 NE 26 32 14 17 1001.8 1001.8 0.0
28/05:30pm 15.9 9.1 6.9 55 4.4 ENE 32 43 17 23 1001.5 1001.5 0.0
28/05:00pm 16.7 10.7 7.1 53 4.8 NE 28 41 15 22 1002.3 1002.3 0.0
28/04:30pm 16.9 10.8 6.7 51 5.1 NE 28 37 15 20 1003.3 1003.3 0.0
28/04:00pm 17.2 11.1 6.7 50 5.2 NE 28 44 15 24 1004.3 1004.3 0.0
28/03:30pm 17.7 10.8 6.6 48 5.5 NE 32 43 17 23 1004.6 1004.5 0.0
28/03:00pm 18.0 12.5 7.7 51 5.3 NE 26 39 14 21 1005.2 1005.1 0.0
28/02:30pm 18.1 12.1 7.2 49 5.5 NE 28 43 15 23 1005.7 1005.6 0.0
28/02:00pm 17.8 11.2 6.0 46 5.8 NE 30 46 16 25 1006.8 1006.8 0.0
28/01:30pm 18.0 12.5 7.4 50 5.4 NE 26 39 14 21 1007.8 1007.8 0.0
28/01:00pm 17.7 12.0 6.9 49 5.4 NE 26 35 14 19 1008.7 1008.7 0.0
28/12:30pm 17.7 12.9 7.2 50 5.3 NNE 22 30 12 16 1009.6 1009.6 0.0
28/12:00pm 17.9 14.1 7.6 51 5.2 NE 17 24 9 13 1010.4 1010.4 0.0
28/11:30am 17.0 12.5 6.8 51 5.1 NNE 20 28 11 15 1011.4 1011.4 0.0

Other Formats:

Comma delimited format used in spreadsheet applications
http://www.bom.gov.au/fwo/IDN60801/IDN60801.95869.axf

JavaScript Object Notation format (JSON) in row-major order
http://www.bom.gov.au/fwo/IDN60801/IDN60801.95869.json